Time;durP1;ratioP1;P1;durP2;ratioP2;P2;SDS_P1;SDS_P2;PMS_P1;PMS_P2;Temp;Humidity;BMP_temperature;BMP_pressure;BME280_temperature;BME280_humidity;BME280_pressure;Samples;Min_cycle;Max_cycle;Signal;HPM_P1;HPM_P2
2024/04/14 00:00:42;;;;;;;2.00;1.80;;;23.60;53.90;;;;;;5449294;26;20341;-69
2024/04/14 00:03:08;;;;;;;3.43;1.93;;;23.50;53.90;;;;;;5451888;26;20224;-68
2024/04/14 00:05:34;;;;;;;2.23;2.03;;;23.60;54.00;;;;;;5451711;26;20604;-69
2024/04/14 00:08:00;;;;;;;2.47;2.27;;;23.50;53.90;;;;;;5451851;26;20449;-69
2024/04/14 00:10:25;;;;;;;3.00;2.70;;;23.50;53.90;;;;;;5451632;26;20452;-68
2024/04/14 00:12:51;;;;;;;2.20;1.97;;;23.50;53.90;;;;;;5451754;26;20228;-69
2024/04/14 00:15:17;;;;;;;2.87;2.50;;;23.50;53.90;;;;;;5451774;26;20710;-68
2024/04/14 00:17:44;;;;;;;2.30;2.10;;;23.50;53.90;;;;;;5451727;26;20215;-68
2024/04/14 00:20:11;;;;;;;2.10;1.90;;;23.50;53.90;;;;;;5451713;26;20512;-69
2024/04/14 00:22:37;;;;;;;2.50;2.30;;;23.50;53.90;;;;;;5451653;26;20457;-70
2024/04/14 00:25:03;;;;;;;2.20;2.00;;;23.50;53.90;;;;;;5451522;26;21036;-67
2024/04/14 00:27:28;;;;;;;2.47;2.27;;;23.50;53.90;;;;;;5451474;26;20274;-68
2024/04/14 00:29:54;;;;;;;2.50;2.30;;;23.50;54.00;;;;;;5451404;26;20296;-69
2024/04/14 00:32:19;;;;;;;2.87;2.57;;;23.50;54.00;;;;;;5451402;26;20319;-69
2024/04/14 00:34:45;;;;;;;2.40;2.13;;;23.50;54.00;;;;;;5451447;26;20235;-70
2024/04/14 00:37:10;;;;;;;2.37;2.17;;;23.50;54.00;;;;;;5451374;26;20253;-68
2024/04/14 00:39:36;;;;;;;2.60;2.13;;;23.50;54.00;;;;;;5451418;26;20667;-68
2024/04/14 00:42:02;;;;;;;2.60;2.40;;;23.50;54.00;;;;;;5451364;26;20704;-68
2024/04/14 00:44:27;;;;;;;2.40;2.20;;;23.50;54.00;;;;;;5451432;26;20250;-69
2024/04/14 00:46:54;;;;;;;3.20;2.50;;;23.50;54.00;;;;;;5451358;26;20576;-68
2024/04/14 00:49:21;;;;;;;2.23;2.03;;;23.50;54.00;;;;;;5451282;26;20331;-68
2024/04/14 00:51:47;;;;;;;3.37;2.07;;;23.50;54.00;;;;;;5451393;26;20469;-68
2024/04/14 00:54:17;;;;;;;2.40;2.20;;;23.50;54.00;;;;;;5451106;26;20449;-69
2024/04/14 00:56:44;;;;;;;2.40;2.17;;;23.50;54.00;;;;;;5451205;26;20223;-68
2024/04/14 00:59:10;;;;;;;2.30;2.10;;;23.50;54.00;;;;;;5451227;26;20508;-68
2024/04/14 01:01:36;;;;;;;2.30;2.10;;;23.50;54.00;;;;;;5450978;26;20464;-69
2024/04/14 01:04:02;;;;;;;2.47;2.10;;;23.50;54.00;;;;;;5451070;26;20530;-68
2024/04/14 01:06:27;;;;;;;2.90;2.20;;;23.50;54.00;;;;;;5451013;26;20223;-68
2024/04/14 01:08:53;;;;;;;2.40;2.20;;;23.50;54.00;;;;;;5450804;26;20295;-68
2024/04/14 01:11:19;;;;;;;3.43;2.20;;;23.50;54.00;;;;;;5451050;26;20281;-69
2024/04/14 01:13:48;;;;;;;2.10;1.90;;;23.50;54.00;;;;;;5450064;26;20959;-68
2024/04/14 01:16:13;;;;;;;1.90;1.80;;;23.50;54.00;;;;;;5450933;26;20231;-68
2024/04/14 01:18:39;;;;;;;4.57;2.20;;;23.50;54.20;;;;;;5450817;26;20559;-69
2024/04/14 01:21:05;;;;;;;2.50;2.23;;;23.50;54.00;;;;;;5451017;26;20769;-67
2024/04/14 01:23:31;;;;;;;2.80;1.73;;;23.50;54.00;;;;;;5450692;26;20266;-69
2024/04/14 01:25:57;;;;;;;1.80;1.70;;;23.50;54.00;;;;;;5450859;26;20448;-69
2024/04/14 01:28:22;;;;;;;2.20;2.00;;;23.50;54.00;;;;;;5450599;26;20750;-68
2024/04/14 01:30:48;;;;;;;2.10;1.97;;;23.50;54.00;;;;;;5450465;26;20347;-69
2024/04/14 01:33:15;;;;;;;2.83;2.00;;;23.50;54.00;;;;;;5450562;26;20312;-68
2024/04/14 01:35:41;;;;;;;3.00;2.10;;;23.50;54.00;;;;;;5450616;26;20223;-68
2024/04/14 01:38:06;;;;;;;2.70;2.50;;;23.50;54.00;;;;;;5450771;26;20500;-68
2024/04/14 01:40:32;;;;;;;2.87;2.00;;;23.50;54.00;;;;;;5450549;26;20228;-69
2024/04/14 01:42:57;;;;;;;2.57;2.37;;;23.50;54.40;;;;;;5450510;26;21112;-69
2024/04/14 01:45:23;;;;;;;2.20;2.00;;;23.50;54.00;;;;;;5450369;26;20220;-68
2024/04/14 01:47:49;;;;;;;2.03;1.83;;;23.50;54.00;;;;;;5450388;26;20262;-67
2024/04/14 01:50:15;;;;;;;2.33;2.00;;;23.50;54.00;;;;;;5450280;26;20714;-69
2024/04/14 01:52:41;;;;;;;2.17;1.97;;;23.50;54.00;;;;;;5450230;26;20504;-68
2024/04/14 01:55:07;;;;;;;2.47;2.27;;;23.50;54.10;;;;;;5450395;26;20710;-68
2024/04/14 01:57:33;;;;;;;2.10;1.90;;;23.50;54.00;;;;;;5450320;26;20334;-69
2024/04/14 01:59:59;;;;;;;2.87;2.57;;;23.50;54.00;;;;;;5450330;26;20445;-68
2024/04/14 02:02:24;;;;;;;2.07;1.87;;;23.50;54.10;;;;;;5450099;26;20453;-69
2024/04/14 02:04:50;;;;;;;1.93;1.83;;;23.50;54.00;;;;;;5450187;26;20331;-69
2024/04/14 02:07:16;;;;;;;2.43;2.23;;;23.50;54.10;;;;;;5450083;26;20618;-68
2024/04/14 02:09:41;;;;;;;1.90;1.80;;;23.50;54.10;;;;;;5450050;26;20798;-68
2024/04/14 02:12:07;;;;;;;2.20;2.00;;;23.50;54.10;;;;;;5450095;26;20227;-68
2024/04/14 02:14:33;;;;;;;2.50;2.30;;;23.50;54.10;;;;;;5450065;26;20227;-69
2024/04/14 02:16:58;;;;;;;2.30;2.10;;;23.50;54.10;;;;;;5450166;26;20852;-68
2024/04/14 02:19:24;;;;;;;2.77;2.10;;;23.50;54.10;;;;;;5449902;26;20223;-68
2024/04/14 02:21:49;;;;;;;2.20;2.00;;;23.50;54.10;;;;;;5449841;26;20305;-69
2024/04/14 02:24:15;;;;;;;2.70;2.20;;;23.50;54.10;;;;;;5448054;26;20266;-68
2024/04/14 02:26:40;;;;;;;2.13;1.80;;;23.50;54.10;;;;;;5449912;26;20212;-69
2024/04/14 02:29:07;;;;;;;2.00;1.90;;;23.50;54.10;;;;;;5449773;26;20294;-69
2024/04/14 02:31:32;;;;;;;2.53;2.00;;;23.50;54.10;;;;;;5449660;26;20336;-68
2024/04/14 02:33:58;;;;;;;2.33;2.10;;;23.50;54.10;;;;;;5449767;26;20460;-68
2024/04/14 02:36:27;;;;;;;2.43;2.23;;;23.50;54.10;;;;;;5449657;26;20231;-69
2024/04/14 02:38:52;;;;;;;2.03;1.83;;;23.50;54.00;;;;;;5449583;26;20261;-69
2024/04/14 02:41:18;;;;;;;2.30;2.10;;;23.50;54.00;;;;;;5449713;26;20476;-69
2024/04/14 02:43:44;;;;;;;2.43;2.23;;;23.50;54.00;;;;;;5449503;26;20219;-69
2024/04/14 02:46:10;;;;;;;2.70;1.73;;;23.50;54.10;;;;;;5449689;26;20215;-69
2024/04/14 02:48:35;;;;;;;2.37;2.03;;;23.50;54.00;;;;;;5447482;26;20571;-69
2024/04/14 02:51:01;;;;;;;2.53;2.33;;;23.50;54.00;;;;;;5477940;26;20269;-70
2024/04/14 02:53:29;;;;;;;2.20;2.00;;;23.50;54.00;;;;;;5449431;26;20646;-68
2024/04/14 02:55:54;;;;;;;2.30;2.07;;;23.50;54.00;;;;;;5449392;26;20231;-68
2024/04/14 02:58:20;;;;;;;2.43;2.00;;;23.40;54.00;;;;;;5449339;26;20838;-68
2024/04/14 03:00:46;;;;;;;2.57;2.20;;;23.50;54.00;;;;;;5449171;26;20381;-68
2024/04/14 03:03:11;;;;;;;2.20;1.90;;;23.40;54.00;;;;;;5449499;26;20239;-69
2024/04/14 03:05:37;;;;;;;2.03;1.80;;;23.40;54.00;;;;;;5449200;26;20568;-69
2024/04/14 03:08:05;;;;;;;2.20;2.00;;;23.50;54.10;;;;;;5449138;26;20702;-69
2024/04/14 03:10:31;;;;;;;2.47;2.00;;;23.40;54.00;;;;;;5448934;26;20215;-68
2024/04/14 03:12:57;;;;;;;2.00;1.80;;;23.40;54.00;;;;;;5449358;26;20448;-68
2024/04/14 03:15:23;;;;;;;3.17;2.47;;;23.50;54.10;;;;;;5449430;26;20449;-68
2024/04/14 03:17:48;;;;;;;2.20;2.00;;;23.50;54.10;;;;;;5449437;26;20725;-69
2024/04/14 03:20:14;;;;;;;2.20;2.00;;;23.50;54.10;;;;;;5449433;26;20235;-68
2024/04/14 03:22:39;;;;;;;2.90;1.90;;;23.40;54.00;;;;;;5449324;26;20231;-69
2024/04/14 03:25:05;;;;;;;2.20;2.03;;;23.40;54.00;;;;;;5449161;26;20223;-67
2024/04/14 03:27:31;;;;;;;2.40;2.20;;;23.40;54.00;;;;;;5448838;26;20730;-68
2024/04/14 03:29:56;;;;;;;2.47;2.27;;;23.50;54.10;;;;;;5449059;26;20230;-69
2024/04/14 03:32:22;;;;;;;2.00;1.80;;;23.50;54.10;;;;;;5448986;26;20621;-69
2024/04/14 03:34:51;;;;;;;2.50;2.17;;;23.50;54.10;;;;;;5449296;26;20219;-69
2024/04/14 03:37:17;;;;;;;2.20;1.93;;;23.50;54.10;;;;;;5452678;26;20223;-69
2024/04/14 03:39:43;;;;;;;2.33;2.13;;;23.40;54.00;;;;;;5452397;26;20526;-69
2024/04/14 03:42:08;;;;;;;2.37;2.17;;;23.40;54.00;;;;;;5452350;26;20243;-68
2024/04/14 03:44:34;;;;;;;2.20;2.00;;;23.40;54.10;;;;;;5452264;26;20285;-68
2024/04/14 03:46:59;;;;;;;2.50;2.30;;;23.40;54.10;;;;;;5452649;26;20685;-68
2024/04/14 03:49:25;;;;;;;2.37;2.17;;;23.40;54.10;;;;;;5452196;26;20582;-69
2024/04/14 03:51:50;;;;;;;2.20;2.00;;;23.40;54.10;;;;;;5452182;26;20243;-68
2024/04/14 03:54:16;;;;;;;2.13;1.97;;;23.40;54.10;;;;;;5452319;26;20223;-68
2024/04/14 03:56:42;;;;;;;2.40;2.20;;;23.40;54.10;;;;;;5452266;26;20223;-70
2024/04/14 03:59:08;;;;;;;2.40;2.20;;;23.50;54.20;;;;;;5452381;26;20219;-69
2024/04/14 04:01:34;;;;;;;2.17;1.97;;;23.50;54.20;;;;;;5452091;26;20243;-69
2024/04/14 04:03:59;;;;;;;2.40;2.20;;;23.40;54.10;;;;;;5452447;26;20508;-69
2024/04/14 04:06:25;;;;;;;2.73;2.20;;;23.40;54.10;;;;;;5452033;26;20269;-69
2024/04/14 04:08:51;;;;;;;2.00;1.80;;;23.40;54.10;;;;;;5451682;26;20316;-68
2024/04/14 04:11:16;;;;;;;1.80;1.70;;;23.40;54.10;;;;;;5451677;26;20228;-69
2024/04/14 04:13:42;;;;;;;2.30;1.93;;;23.40;54.10;;;;;;5451556;26;20261;-69
2024/04/14 04:16:08;;;;;;;2.20;2.00;;;23.40;54.10;;;;;;5451953;26;20307;-68
2024/04/14 04:18:35;;;;;;;1.90;1.80;;;23.40;54.10;;;;;;5451665;26;20794;-69
2024/04/14 04:21:07;;;;;;;3.00;1.90;;;23.40;54.10;;;;;;5451567;26;20561;-69
2024/04/14 04:23:33;;;;;;;2.13;1.93;;;23.50;54.20;;;;;;5451609;26;20460;-69
2024/04/14 04:26:00;;;;;;;2.47;1.93;;;23.40;54.10;;;;;;5451548;26;20565;-67
2024/04/14 04:28:30;;;;;;;1.93;1.73;;;23.40;54.10;;;;;;5451406;26;20456;-68
2024/04/14 04:30:56;;;;;;;2.13;1.93;;;23.40;54.10;;;;;;5451326;26;20460;-69
2024/04/14 04:33:25;;;;;;;1.80;1.70;;;23.40;54.10;;;;;;5451356;26;20449;-69
2024/04/14 04:35:55;;;;;;;2.23;2.07;;;23.40;54.10;;;;;;5451407;26;20445;-69
2024/04/14 04:38:23;;;;;;;2.10;1.80;;;23.40;54.20;;;;;;5451355;26;20891;-68
2024/04/14 04:40:51;;;;;;;2.13;1.93;;;23.40;54.20;;;;;;5451332;26;20876;-68
2024/04/14 04:43:17;;;;;;;2.50;1.93;;;23.40;54.20;;;;;;5451588;26;20566;-69
2024/04/14 04:45:42;;;;;;;2.20;2.00;;;23.40;54.20;;;;;;5451167;26;20967;-69
2024/04/14 04:48:08;;;;;;;2.53;2.20;;;23.40;54.20;;;;;;5449922;26;20309;-68
2024/04/14 04:50:34;;;;;;;2.30;2.10;;;23.40;54.20;;;;;;5451025;26;20262;-69
2024/04/14 04:53:01;;;;;;;2.20;2.00;;;23.40;54.20;;;;;;5451051;26;20220;-69
2024/04/14 04:55:27;;;;;;;1.90;1.80;;;23.40;54.20;;;;;;5451060;26;20275;-68
2024/04/14 04:57:52;;;;;;;2.10;1.70;;;23.40;54.20;;;;;;5451142;26;20453;-69
2024/04/14 05:00:18;;;;;;;1.60;1.50;;;23.40;54.20;;;;;;5450957;26;20219;-68
2024/04/14 05:02:43;;;;;;;2.10;1.90;;;23.40;54.20;;;;;;5450989;26;20266;-68
2024/04/14 05:05:09;;;;;;;2.17;1.97;;;23.40;54.20;;;;;;5450891;26;20223;-68
2024/04/14 05:07:35;;;;;;;2.10;1.90;;;23.40;54.20;;;;;;5450790;26;20215;-68
2024/04/14 05:10:00;;;;;;;2.20;1.90;;;23.40;54.20;;;;;;5450670;26;20694;-70
2024/04/14 05:12:26;;;;;;;2.20;2.00;;;23.40;54.20;;;;;;5450844;26;20773;-68
2024/04/14 05:14:51;;;;;;;1.60;1.40;;;23.40;54.20;;;;;;5450754;26;20219;-68
2024/04/14 05:17:17;;;;;;;1.73;1.63;;;23.40;54.20;;;;;;5450637;26;20299;-69
2024/04/14 05:19:42;;;;;;;1.97;1.87;;;23.40;54.80;;;;;;5450454;26;20227;-69
2024/04/14 05:22:08;;;;;;;2.17;1.97;;;23.40;54.20;;;;;;5450585;26;20236;-69
2024/04/14 05:24:33;;;;;;;2.20;2.00;;;23.40;54.20;;;;;;5450972;26;20227;-68
2024/04/14 05:26:59;;;;;;;1.77;1.67;;;23.40;54.20;;;;;;5450561;26;20745;-68
2024/04/14 05:29:27;;;;;;;1.93;1.73;;;23.40;54.20;;;;;;5450582;26;20626;-70
2024/04/14 05:31:52;;;;;;;2.30;2.10;;;23.40;54.20;;;;;;5450576;26;20235;-69
2024/04/14 05:34:18;;;;;;;2.37;2.10;;;23.40;54.20;;;;;;5450598;26;20449;-69
2024/04/14 05:36:47;;;;;;;1.83;1.70;;;23.40;54.20;;;;;;5450533;26;20231;-68
2024/04/14 05:39:13;;;;;;;1.70;1.60;;;23.40;54.20;;;;;;5450479;26;20219;-69
2024/04/14 05:41:38;;;;;;;1.93;1.53;;;23.50;54.30;;;;;;5450394;26;20539;-69
2024/04/14 05:44:04;;;;;;;2.63;2.20;;;23.40;54.20;;;;;;5450373;26;20231;-69
2024/04/14 05:46:29;;;;;;;2.27;2.07;;;23.50;54.50;;;;;;5448578;26;20223;-68
2024/04/14 05:48:55;;;;;;;2.47;2.10;;;23.50;54.30;;;;;;5450487;26;20275;-67
2024/04/14 05:51:21;;;;;;;2.17;1.90;;;23.50;54.30;;;;;;5450251;26;20247;-68
2024/04/14 05:53:48;;;;;;;2.10;1.90;;;23.50;54.30;;;;;;5450340;26;20219;-69
2024/04/14 05:56:14;;;;;;;2.00;1.80;;;23.50;54.30;;;;;;5450347;26;20328;-69
2024/04/14 05:58:40;;;;;;;1.97;1.83;;;23.50;54.30;;;;;;5450034;26;20554;-69
2024/04/14 06:01:07;;;;;;;2.30;2.10;;;23.50;54.30;;;;;;5450163;26;21006;-70
2024/04/14 06:03:33;;;;;;;2.10;1.90;;;23.50;54.30;;;;;;5450243;26;20524;-68
2024/04/14 06:05:59;;;;;;;2.30;2.10;;;23.50;54.30;;;;;;5450180;26;20477;-68
2024/04/14 06:08:25;;;;;;;2.20;1.93;;;23.50;54.30;;;;;;5450209;26;20219;-69
2024/04/14 06:10:50;;;;;;;2.30;2.10;;;23.50;54.30;;;;;;5449986;26;20516;-68
2024/04/14 06:13:16;;;;;;;2.10;1.90;;;23.50;54.30;;;;;;5450167;26;20502;-69
2024/04/14 06:15:43;;;;;;;2.27;2.07;;;23.50;54.30;;;;;;5450105;26;20583;-68
2024/04/14 06:18:09;;;;;;;2.23;1.90;;;23.50;54.30;;;;;;5450044;26;20227;-69
2024/04/14 06:20:38;;;;;;;1.63;1.53;;;23.50;54.30;;;;;;5450002;26;20594;-68
2024/04/14 06:23:04;;;;;;;2.20;1.73;;;23.50;54.30;;;;;;5450076;26;20227;-68
2024/04/14 06:25:30;;;;;;;2.20;1.77;;;23.50;54.30;;;;;;5450072;26;20530;-69
2024/04/14 06:27:56;;;;;;;1.70;1.60;;;23.50;54.30;;;;;;5449719;26;20481;-69
2024/04/14 06:30:22;;;;;;;1.80;1.70;;;23.60;54.40;;;;;;5449858;26;20242;-69
2024/04/14 06:32:48;;;;;;;1.80;1.70;;;23.60;54.40;;;;;;5449810;26;20441;-69
2024/04/14 06:35:14;;;;;;;2.10;1.90;;;23.50;54.30;;;;;;5449537;26;20270;-68
2024/04/14 06:37:39;;;;;;;2.03;1.83;;;23.60;54.40;;;;;;5449441;26;20958;-69
2024/04/14 06:40:06;;;;;;;2.03;1.63;;;23.50;54.40;;;;;;5449679;26;20222;-68
2024/04/14 06:42:31;;;;;;;2.10;1.90;;;23.60;54.50;;;;;;5449484;26;20277;-68
2024/04/14 06:44:57;;;;;;;1.87;1.77;;;23.60;54.50;;;;;;5449242;26;20469;-68
2024/04/14 06:47:23;;;;;;;1.93;1.70;;;23.60;54.50;;;;;;5449678;26;20324;-68
2024/04/14 06:49:48;;;;;;;1.90;1.80;;;23.60;54.50;;;;;;5449512;26;20269;-69
2024/04/14 06:52:14;;;;;;;2.00;1.80;;;23.60;54.50;;;;;;5449452;26;20949;-68
2024/04/14 06:54:40;;;;;;;1.70;1.60;;;23.60;54.50;;;;;;5449540;26;20766;-69
2024/04/14 06:57:05;;;;;;;2.47;1.70;;;23.60;54.50;;;;;;5449833;26;20235;-68
2024/04/14 06:59:31;;;;;;;2.33;2.07;;;23.60;54.50;;;;;;5449455;26;20215;-69
2024/04/14 07:01:56;;;;;;;1.97;1.67;;;23.60;54.40;;;;;;5449407;26;20228;-68
2024/04/14 07:04:22;;;;;;;2.10;1.80;;;23.60;54.50;;;;;;5449199;26;20254;-69
2024/04/14 07:06:48;;;;;;;1.80;1.67;;;23.60;54.40;;;;;;5449316;26;20270;-69
2024/04/14 07:09:13;;;;;;;1.87;1.77;;;23.60;54.50;;;;;;5449171;26;20718;-68
2024/04/14 07:11:39;;;;;;;1.80;1.70;;;23.60;54.40;;;;;;5451768;26;20257;-68
2024/04/14 07:14:05;;;;;;;2.27;1.73;;;23.60;54.40;;;;;;5453019;26;20223;-68
2024/04/14 07:16:30;;;;;;;2.23;2.03;;;23.60;54.50;;;;;;5452609;26;20254;-69
2024/04/14 07:18:56;;;;;;;1.97;1.77;;;23.60;54.50;;;;;;5452610;26;21224;-68
2024/04/14 07:21:21;;;;;;;1.93;1.57;;;23.60;55.00;;;;;;5480915;26;20698;-70
2024/04/14 07:23:47;;;;;;;2.67;2.13;;;23.60;54.50;;;;;;5453234;26;20283;-72
2024/04/14 07:26:13;;;;;;;1.87;1.73;;;23.60;54.50;;;;;;5453742;26;20223;-71
2024/04/14 07:28:38;;;;;;;2.50;2.30;;;23.60;54.50;;;;;;5453869;26;20231;-71
2024/04/14 07:31:04;;;;;;;2.37;2.17;;;23.70;54.50;;;;;;5453660;26;20281;-71
2024/04/14 07:33:29;;;;;;;2.03;1.73;;;23.70;54.50;;;;;;5453453;26;20694;-71
2024/04/14 07:35:55;;;;;;;2.00;1.87;;;23.70;54.50;;;;;;5453424;26;20277;-68
2024/04/14 07:38:20;;;;;;;2.73;1.73;;;23.70;54.50;;;;;;5452401;26;20232;-68
2024/04/14 07:40:46;;;;;;;2.40;2.00;;;23.70;54.60;;;;;;5452248;26;21056;-68
2024/04/14 07:43:12;;;;;;;1.90;1.80;;;23.70;54.60;;;;;;5452473;26;20223;-68
2024/04/14 07:45:37;;;;;;;3.63;2.53;;;23.70;54.50;;;;;;5452466;26;20215;-70
2024/04/14 07:48:03;;;;;;;2.17;1.97;;;23.70;54.50;;;;;;5430560;26;20282;-69
2024/04/14 07:50:28;;;;;;;3.20;2.10;;;23.70;54.50;;;;;;5431739;26;20284;-68
2024/04/14 07:52:54;;;;;;;2.77;1.80;;;23.70;54.60;;;;;;5434327;26;20290;-69
2024/04/14 07:55:20;;;;;;;2.37;2.17;;;23.70;54.50;;;;;;5434727;26;20232;-69
2024/04/14 07:57:45;;;;;;;2.47;2.00;;;23.70;54.50;;;;;;5431799;26;20228;-69
2024/04/14 08:00:11;;;;;;;1.97;1.80;;;23.70;54.50;;;;;;5434943;26;20361;-68
2024/04/14 08:02:37;;;;;;;2.20;2.00;;;23.70;55.00;;;;;;5433749;26;20645;-69
2024/04/14 08:05:02;;;;;;;2.00;1.80;;;23.70;54.40;;;;;;5432369;26;20282;-70
2024/04/14 08:07:28;;;;;;;2.07;1.87;;;23.70;54.40;;;;;;5435564;26;20262;-69
2024/04/14 08:09:54;;;;;;;2.10;1.80;;;23.70;54.40;;;;;;5428525;26;20241;-66
2024/04/14 08:12:20;;;;;;;2.43;2.00;;;23.70;54.40;;;;;;5416183;26;20278;-68
2024/04/14 08:14:46;;;;;;;4.00;1.97;;;23.70;54.30;;;;;;5415909;26;20571;-68
2024/04/14 08:17:12;;;;;;;2.33;2.13;;;23.80;54.40;;;;;;5415843;26;20580;-69
2024/04/14 08:19:39;;;;;;;4.50;2.10;;;23.80;54.40;;;;;;5415925;26;20564;-68
2024/04/14 08:22:04;;;;;;;2.40;2.20;;;23.80;54.50;;;;;;5415576;26;20236;-68
2024/04/14 08:24:30;;;;;;;2.17;1.90;;;23.80;54.50;;;;;;5415666;26;20860;-67
2024/04/14 08:26:55;;;;;;;2.13;1.90;;;23.80;54.40;;;;;;5415636;26;20228;-68
2024/04/14 08:29:21;;;;;;;3.30;2.10;;;23.80;54.40;;;;;;5415522;26;20314;-68
2024/04/14 08:31:47;;;;;;;2.73;1.90;;;23.80;54.40;;;;;;5415596;26;20232;-68
2024/04/14 08:34:12;;;;;;;2.50;2.30;;;23.80;54.40;;;;;;5415477;26;20216;-68
2024/04/14 08:36:38;;;;;;;3.83;2.23;;;23.90;54.50;;;;;;5415553;26;20406;-68
2024/04/14 08:39:03;;;;;;;3.80;2.60;;;23.80;54.40;;;;;;5415097;26;20753;-69
2024/04/14 08:41:35;;;;;;;6.93;2.63;;;23.90;54.50;;;;;;5415518;26;20587;-71
2024/04/14 08:44:01;;;;;;;5.10;2.40;;;23.90;54.50;;;;;;5415359;26;20239;-71
2024/04/14 08:46:28;;;;;;;4.60;2.17;;;23.90;54.50;;;;;;5415646;26;20572;-71
2024/04/14 08:48:54;;;;;;;4.33;2.43;;;23.90;54.50;;;;;;5415693;26;20241;-69
2024/04/14 08:51:22;;;;;;;2.50;2.30;;;23.90;54.60;;;;;;5415217;26;20563;-69
2024/04/14 08:53:49;;;;;;;2.30;2.10;;;23.90;54.50;;;;;;5415389;26;20216;-69
2024/04/14 08:56:15;;;;;;;2.83;2.43;;;23.90;54.50;;;;;;5414808;26;20458;-68
2024/04/14 08:58:43;;;;;;;3.67;2.77;;;23.90;54.50;;;;;;5415026;26;20512;-69
2024/04/14 09:01:10;;;;;;;2.53;2.33;;;23.90;54.50;;;;;;5415516;26;20240;-69
2024/04/14 09:03:36;;;;;;;4.63;2.47;;;23.90;54.50;;;;;;5414816;26;20450;-68
2024/04/14 09:06:03;;;;;;;2.27;2.07;;;24.00;54.60;;;;;;5414877;26;20491;-70
2024/04/14 09:08:29;;;;;;;5.50;2.40;;;23.90;54.50;;;;;;5413026;26;20308;-70
2024/04/14 09:10:55;;;;;;;2.40;2.20;;;23.90;54.50;;;;;;5414791;26;20470;-69
2024/04/14 09:13:25;;;;;;;3.40;2.10;;;23.90;54.50;;;;;;5415139;26;20560;-69
2024/04/14 09:16:00;;;;;;;4.43;2.20;;;24.00;55.10;;;;;;5414988;26;20274;-69
2024/04/14 09:18:25;;;;;;;3.10;2.27;;;24.00;54.50;;;;;;5414965;26;20509;-70
2024/04/14 09:20:51;;;;;;;2.80;2.20;;;23.90;54.50;;;;;;5414867;26;20478;-69
2024/04/14 09:23:16;;;;;;;2.90;2.07;;;24.00;54.50;;;;;;5414823;26;21108;-70
2024/04/14 09:25:43;;;;;;;3.33;1.77;;;23.90;54.50;;;;;;5414747;26;20224;-70
2024/04/14 09:28:12;;;;;;;6.57;2.83;;;24.00;54.60;;;;;;5414579;26;20782;-71
2024/04/14 09:30:38;;;;;;;2.47;2.27;;;24.00;54.60;;;;;;5414665;26;20668;-70
2024/04/14 09:33:05;;;;;;;4.03;2.37;;;24.00;54.60;;;;;;5413586;26;20529;-69
2024/04/14 09:35:31;;;;;;;4.63;2.70;;;24.00;54.60;;;;;;5414743;26;20810;-69
2024/04/14 09:37:56;;;;;;;2.67;2.20;;;24.00;55.10;;;;;;5414784;26;20447;-68
2024/04/14 09:40:25;;;;;;;4.20;2.70;;;24.00;54.60;;;;;;5414705;26;20901;-70
2024/04/14 09:42:57;;;;;;;2.90;2.40;;;24.00;54.60;;;;;;5413015;26;20585;-69
2024/04/14 09:45:24;;;;;;;3.27;2.10;;;24.00;54.60;;;;;;5414426;26;20573;-69
2024/04/14 09:47:53;;;;;;;4.67;2.00;;;24.00;54.60;;;;;;5414601;26;20506;-68
2024/04/14 09:50:20;;;;;;;2.67;2.47;;;24.00;54.60;;;;;;5414388;26;20448;-69
2024/04/14 09:52:48;;;;;;;2.70;1.93;;;24.00;54.50;;;;;;5414747;26;20565;-68
2024/04/14 09:55:14;;;;;;;3.53;2.20;;;24.00;54.50;;;;;;5414876;26;21122;-69
2024/04/14 09:57:40;;;;;;;3.50;2.27;;;24.00;54.50;;;;;;5414337;26;20462;-69
2024/04/14 10:00:10;;;;;;;3.33;2.27;;;24.00;54.60;;;;;;5414400;26;20220;-68
2024/04/14 10:02:46;;;;;;;2.40;1.80;;;24.00;54.50;;;;;;5414270;26;20474;-69
2024/04/14 10:05:12;;;;;;;2.30;1.80;;;24.00;54.60;;;;;;5414726;26;20509;-68
2024/04/14 10:07:38;;;;;;;3.77;2.50;;;24.00;54.60;;;;;;5414214;26;20462;-69
2024/04/14 10:10:06;;;;;;;2.60;1.80;;;24.10;54.60;;;;;;5412417;26;20571;-68
2024/04/14 10:12:35;;;;;;;2.97;2.00;;;24.10;54.70;;;;;;5414178;26;20228;-69
2024/04/14 10:15:05;;;;;;;9.03;2.40;;;24.10;54.70;;;;;;5414182;26;20853;-68
2024/04/14 10:17:34;;;;;;;3.43;2.30;;;24.10;54.60;;;;;;5414346;26;20502;-70
2024/04/14 10:20:03;;;;;;;2.80;2.27;;;24.10;54.60;;;;;;5414317;26;20442;-68
2024/04/14 10:22:36;;;;;;;3.23;2.13;;;24.10;54.60;;;;;;5414034;26;20580;-69
2024/04/14 10:25:02;;;;;;;1.90;1.73;;;24.10;54.70;;;;;;5414194;26;20438;-69
2024/04/14 10:27:34;;;;;;;2.70;1.70;;;24.10;54.70;;;;;;5414184;26;20534;-68
2024/04/14 10:30:01;;;;;;;3.17;2.10;;;24.10;54.70;;;;;;5414045;26;20454;-68
2024/04/14 10:32:27;;;;;;;2.47;2.00;;;24.10;54.70;;;;;;5413879;26;20553;-69
2024/04/14 10:34:53;;;;;;;2.87;2.07;;;24.10;54.60;;;;;;5413834;26;20452;-67
2024/04/14 10:37:26;;;;;;;3.33;2.13;;;24.10;54.70;;;;;;5413826;26;20517;-68
2024/04/14 10:39:53;;;;;;;3.57;2.30;;;24.10;54.70;;;;;;5413757;26;20217;-68
2024/04/14 10:42:19;;;;;;;3.43;2.37;;;24.10;54.70;;;;;;5413917;26;20545;-67
2024/04/14 10:44:45;;;;;;;3.40;2.30;;;24.10;54.60;;;;;;5412144;26;20510;-69
2024/04/14 10:47:18;;;;;;;3.93;1.77;;;24.10;54.60;;;;;;5413592;26;20450;-69
2024/04/14 10:49:50;;;;;;;3.30;2.20;;;24.10;54.60;;;;;;5413658;26;20592;-68
2024/04/14 10:52:17;;;;;;;4.27;1.90;;;24.10;54.60;;;;;;5413468;26;20522;-69
2024/04/14 10:54:43;;;;;;;3.27;2.43;;;24.10;54.70;;;;;;5411804;26;20997;-67
2024/04/14 10:57:10;;;;;;;2.53;2.33;;;24.10;54.60;;;;;;5413530;26;20560;-69
2024/04/14 10:59:36;;;;;;;6.00;2.07;;;24.10;54.60;;;;;;5413322;26;20454;-68
2024/04/14 11:02:02;;;;;;;4.00;1.80;;;24.10;54.60;;;;;;5411527;26;20542;-69
2024/04/14 11:04:28;;;;;;;2.77;1.90;;;24.10;54.60;;;;;;5413403;26;20510;-68
2024/04/14 11:06:55;;;;;;;5.20;2.00;;;24.10;54.60;;;;;;5413262;26;20450;-69
2024/04/14 11:09:22;;;;;;;2.53;1.77;;;24.10;54.60;;;;;;5413130;26;20513;-68
2024/04/14 11:11:49;;;;;;;3.70;2.10;;;24.10;54.60;;;;;;5413244;26;20584;-69
2024/04/14 11:14:20;;;;;;;3.97;2.10;;;24.10;54.60;;;;;;5413237;26;20454;-68
2024/04/14 11:16:46;;;;;;;2.07;1.77;;;24.10;54.60;;;;;;5413413;26;20514;-70
2024/04/14 11:19:12;;;;;;;2.90;2.07;;;24.10;54.60;;;;;;5413431;26;20451;-69
2024/04/14 11:21:38;;;;;;;5.50;2.30;;;24.10;54.60;;;;;;5413150;26;20522;-69
2024/04/14 11:24:08;;;;;;;2.20;1.97;;;24.10;54.60;;;;;;5413189;26;20702;-69
2024/04/14 11:26:34;;;;;;;2.00;1.70;;;24.10;54.60;;;;;;5412900;26;20459;-69
2024/04/14 11:28:59;;;;;;;4.53;1.93;;;24.10;54.60;;;;;;5412743;26;20515;-68
2024/04/14 11:31:25;;;;;;;3.87;3.13;;;24.10;54.60;;;;;;5413003;26;20241;-69
2024/04/14 11:33:59;;;;;;;2.60;2.00;;;24.10;54.60;;;;;;5412764;26;20727;-68
2024/04/14 11:36:31;;;;;;;3.23;2.10;;;24.00;54.50;;;;;;5411015;26;20505;-69
2024/04/14 11:38:57;;;;;;;2.60;1.97;;;24.00;54.50;;;;;;5412841;26;20454;-68
2024/04/14 11:41:23;;;;;;;2.20;1.73;;;24.00;54.50;;;;;;5412704;26;20585;-69
2024/04/14 11:43:48;;;;;;;2.93;2.00;;;24.00;54.60;;;;;;5412558;26;20267;-68
2024/04/14 11:46:14;;;;;;;4.90;2.70;;;24.00;54.60;;;;;;5412592;26;20221;-70
2024/04/14 11:48:40;;;;;;;4.33;2.07;;;24.00;54.60;;;;;;5412540;26;20264;-69
2024/04/14 11:51:06;;;;;;;2.57;2.00;;;24.00;54.60;;;;;;5412241;26;20562;-69
2024/04/14 11:53:31;;;;;;;2.80;2.13;;;24.00;54.60;;;;;;5412600;26;20325;-69
2024/04/14 11:55:57;;;;;;;2.50;1.83;;;24.00;54.60;;;;;;5412832;26;20220;-68
2024/04/14 11:58:25;;;;;;;3.70;2.27;;;24.00;54.60;;;;;;5416508;26;20670;-70
2024/04/14 12:00:51;;;;;;;2.43;2.00;;;24.00;54.60;;;;;;5416334;26;20360;-68
2024/04/14 12:03:17;;;;;;;2.30;2.10;;;24.00;54.60;;;;;;5416457;26;20979;-69
2024/04/14 12:05:42;;;;;;;3.50;2.30;;;24.00;54.60;;;;;;5416067;26;20302;-68
2024/04/14 12:08:08;;;;;;;2.17;1.97;;;24.00;54.60;;;;;;5416115;26;20695;-70
2024/04/14 12:10:34;;;;;;;3.13;2.07;;;24.00;54.60;;;;;;5416228;26;20232;-68
2024/04/14 12:13:00;;;;;;;2.50;2.00;;;24.00;54.60;;;;;;5416202;26;20567;-68
2024/04/14 12:15:25;;;;;;;1.83;1.73;;;24.00;54.60;;;;;;5415946;26;20442;-70
2024/04/14 12:17:51;;;;;;;1.90;1.67;;;24.00;54.70;;;;;;5415977;26;20232;-68
2024/04/14 12:20:16;;;;;;;2.40;2.13;;;24.00;54.70;;;;;;5416190;26;20236;-69
2024/04/14 12:22:42;;;;;;;2.87;1.90;;;24.00;54.70;;;;;;5415847;26;20735;-69
2024/04/14 12:25:07;;;;;;;1.97;1.73;;;24.00;54.70;;;;;;5416000;26;20221;-69
2024/04/14 12:27:33;;;;;;;1.70;1.60;;;24.00;54.70;;;;;;5415658;26;20279;-68
2024/04/14 12:29:59;;;;;;;2.20;1.70;;;24.00;55.20;;;;;;5415929;26;20753;-69
2024/04/14 12:32:24;;;;;;;2.07;1.87;;;23.90;54.60;;;;;;5415837;26;20332;-68
2024/04/14 12:34:50;;;;;;;1.50;1.37;;;23.90;54.60;;;;;;5415834;26;20266;-68
2024/04/14 12:37:16;;;;;;;2.20;2.00;;;24.00;54.70;;;;;;5415851;26;20221;-68
2024/04/14 12:39:41;;;;;;;2.30;2.00;;;24.00;54.70;;;;;;5413910;26;20314;-68
2024/04/14 12:42:07;;;;;;;2.40;1.90;;;23.90;54.60;;;;;;5415594;26;20247;-69